Lambourn, United Kingdom
Current Conditions -  °F | °C
As of 6:58 AM on Friday 19 Dec 2014 (Local Time) from EGVA Reporting Station
Broken Clouds Broken Clouds  
Wind Chill: 44°   Ceiling: 16000
Heat Index: 49°   Visibility: 6mi
Dew Point: 44°   Wind: 14mph
Humidity: 84%   Direction: 290°WNW
Pressure: 29.84"   Gusts: 21mph
Location:  51.51°N, 1.53°W
Report Text: EGVA 190658Z AUTO 29012G18KT 9999 FEW028 SCT036 BKN160 09/07 A2984 RMK AO2 SLP109 T00940068
Loading
Personal Weather Stations






























Interactive Weather Map New forecast layout! Learn more

10-Day Weather Forecast

Advertisements
Track Severe Weather on mobile